Time;durP1;ratioP1;P1;durP2;ratioP2;P2;SDS_P1;SDS_P2;PMS_P1;PMS_P2;Temp;Humidity;BMP_temperature;BMP_pressure;BME280_temperature;BME280_humidity;BME280_pressure;Samples;Min_cycle;Max_cycle;Signal;HPM_P1;HPM_P2
2022/08/06 00:00:08;;;;;;;25.57;12.35;;;;;;;20.48;76.54;100749.10;1829065;78;21566;-67
2022/08/06 00:02:43;;;;;;;29.98;16.23;;;;;;;20.44;76.75;100748.00;1829154;77;21508;-67
2022/08/06 00:05:12;;;;;;;29.63;14.40;;;;;;;20.41;76.71;100754.08;1829172;78;21074;-67
2022/08/06 00:07:40;;;;;;;48.38;24.55;;;;;;;20.33;76.60;100752.02;1829119;78;21065;-67
2022/08/06 00:10:09;;;;;;;34.88;18.32;;;;;;;20.27;76.74;100755.66;1829141;77;21192;-67
2022/08/06 00:12:38;;;;;;;18.42;9.58;;;;;;;20.22;76.78;100761.39;1829047;78;21505;-68
2022/08/06 00:15:08;;;;;;;11.50;6.60;;;;;;;20.14;76.94;100765.14;1829144;78;21062;-68
2022/08/06 00:17:38;;;;;;;11.35;7.33;;;;;;;20.07;77.14;100764.80;1829198;78;21551;-67
2022/08/06 00:20:08;;;;;;;12.07;6.85;;;;;;;20.05;77.13;100766.73;1829022;78;21441;-67
2022/08/06 00:22:36;;;;;;;14.25;7.12;;;;;;;19.96;77.69;100764.30;1829144;78;21158;-67
2022/08/06 00:25:07;;;;;;;13.10;7.35;;;;;;;19.91;78.04;100759.79;1828950;78;21054;-67
2022/08/06 00:27:36;;;;;;;15.85;8.00;;;;;;;19.89;78.70;100744.36;1829185;77;21128;-68
2022/08/06 00:30:10;;;;;;;14.20;7.60;;;;;;;19.91;78.85;100751.77;1829000;78;21139;-67
2022/08/06 00:32:38;;;;;;;11.93;7.03;;;;;;;19.93;78.69;100747.65;1829182;77;21125;-67
2022/08/06 00:35:07;;;;;;;12.98;7.87;;;;;;;19.97;79.01;100733.06;1852646;77;21049;-67
2022/08/06 00:37:36;;;;;;;13.28;7.55;;;;;;;19.98;79.00;100743.64;1855510;77;21029;-67
2022/08/06 00:40:06;;;;;;;18.95;8.28;;;;;;;20.00;78.84;100747.04;1855552;77;20993;-67
2022/08/06 00:42:35;;;;;;;13.60;7.60;;;;;;;20.02;78.72;100747.77;1855571;77;21073;-67
2022/08/06 00:45:04;;;;;;;14.75;9.08;;;;;;;20.05;79.13;100747.53;1855561;77;21073;-68
2022/08/06 00:47:33;;;;;;;19.70;9.18;;;;;;;20.08;79.04;100746.43;1855635;77;21025;-67
2022/08/06 00:50:02;;;;;;;16.50;8.40;;;;;;;20.08;79.34;100742.91;1855630;77;21095;-68
2022/08/06 00:52:31;;;;;;;20.35;8.80;;;;;;;20.04;79.51;100733.80;1855698;77;21091;-67
2022/08/06 00:55:00;;;;;;;12.13;6.72;;;;;;;19.98;79.58;100728.10;1855664;77;21145;-67
2022/08/06 00:57:28;;;;;;;13.48;7.87;;;;;;;19.86;79.74;100723.22;1855706;77;21025;-67
2022/08/06 00:59:57;;;;;;;12.63;7.50;;;;;;;19.74;79.92;100733.05;1855748;77;21098;-67
2022/08/06 01:02:25;;;;;;;13.53;7.97;;;;;;;19.66;80.25;100717.59;1855683;77;21028;-69
2022/08/06 01:04:54;;;;;;;13.35;8.20;;;;;;;19.68;80.07;100725.50;1855749;77;21092;-67
2022/08/06 01:07:22;;;;;;;24.05;8.35;;;;;;;19.68;80.17;100722.33;1855688;77;21049;-66
2022/08/06 01:09:51;;;;;;;18.17;9.33;;;;;;;19.67;80.31;100723.28;1855690;77;21021;-67
2022/08/06 01:12:20;;;;;;;16.35;8.55;;;;;;;19.64;80.08;100724.01;1855795;77;21032;-66
2022/08/06 01:14:48;;;;;;;13.62;7.42;;;;;;;19.59;81.04;100708.35;1855778;77;21588;-66
2022/08/06 01:17:29;;;;;;;14.98;8.10;;;;;;;19.58;80.81;100719.99;1855574;77;21036;-66
2022/08/06 01:20:06;;;;;;;14.90;7.50;;;;;;;19.53;81.01;100711.52;1855792;77;21091;-66
2022/08/06 01:22:43;;;;;;;13.58;7.00;;;;;;;19.53;81.24;100716.85;1855674;77;21020;-66
2022/08/06 01:25:20;;;;;;;12.23;6.70;;;;;;;19.54;80.83;100718.53;1854620;76;21120;-66
2022/08/06 01:28:04;;;;;;;18.10;8.38;;;;;;;19.57;81.00;100716.09;1853626;77;21162;-66
2022/08/06 01:30:36;;;;;;;14.20;8.28;;;;;;;19.58;81.13;100722.66;1855511;77;21471;-66
2022/08/06 01:33:10;;;;;;;17.02;8.75;;;;;;;19.51;81.47;100705.41;1852692;76;21028;-67
2022/08/06 01:35:41;;;;;;;14.00;7.80;;;;;;;19.51;81.57;100712.09;1834355;76;21062;-66
2022/08/06 01:38:16;;;;;;;19.20;9.28;;;;;;;19.50;81.42;100717.57;1829008;76;21066;-67
2022/08/06 01:40:48;;;;;;;14.13;8.25;;;;;;;19.47;81.43;100714.14;1829214;78;21116;-66
2022/08/06 01:43:19;;;;;;;12.82;7.05;;;;;;;19.44;81.19;100721.08;1829231;77;21022;-66
2022/08/06 01:45:51;;;;;;;12.55;6.40;;;;;;;19.41;81.15;100712.45;1829259;78;21148;-66
2022/08/06 01:48:23;;;;;;;11.85;6.17;;;;;;;19.35;81.14;100731.58;1829086;78;21160;-67
2022/08/06 01:50:54;;;;;;;13.25;6.35;;;;;;;19.26;80.98;100733.16;1829161;78;21034;-67
2022/08/06 01:53:32;;;;;;;14.47;6.35;;;;;;;19.21;80.81;100741.49;1829116;76;21050;-67
2022/08/06 01:56:03;;;;;;;13.15;6.62;;;;;;;19.18;80.58;100737.74;1829078;77;21398;-67
2022/08/06 01:58:35;;;;;;;12.70;6.85;;;;;;;19.15;80.45;100731.78;1829211;78;21444;-66
2022/08/06 02:01:07;;;;;;;14.85;7.72;;;;;;;19.12;80.45;100742.19;1829014;78;21147;-67
2022/08/06 02:03:38;;;;;;;10.15;6.12;;;;;;;19.10;80.30;100744.97;1829140;77;21057;-66
2022/08/06 02:06:08;;;;;;;12.73;6.20;;;;;;;19.09;80.13;100746.44;1829187;78;21124;-67
2022/08/06 02:08:39;;;;;;;14.50;6.60;;;;;;;19.08;80.03;100746.90;1829193;78;21057;-67
2022/08/06 02:11:11;;;;;;;14.53;7.72;;;;;;;19.08;80.05;100744.23;1829219;78;21543;-67
2022/08/06 02:13:43;;;;;;;17.25;7.85;;;;;;;19.09;79.93;100745.11;1829040;78;21105;-67
2022/08/06 02:16:14;;;;;;;19.80;6.87;;;;;;;19.07;79.82;100736.33;1829074;78;21053;-67
2022/08/06 02:18:45;;;;;;;39.23;9.23;;;;;;;19.05;79.77;100738.27;1829097;78;21145;-67
2022/08/06 02:21:20;;;;;;;27.82;9.03;;;;;;;19.05;79.79;100727.59;1829208;78;21066;-67
2022/08/06 02:23:51;;;;;;;31.05;9.60;;;;;;;18.99;80.21;100727.57;1829156;78;21144;-68
2022/08/06 02:26:22;;;;;;;30.57;9.60;;;;;;;18.97;80.49;100724.66;1829113;78;21093;-67
2022/08/06 02:28:53;;;;;;;25.08;9.23;;;;;;;18.99;80.95;100718.73;1829067;78;21065;-67
2022/08/06 02:31:21;;;;;;;34.08;9.75;;;;;;;19.02;81.38;100723.84;1829134;78;21128;-67
2022/08/06 02:33:51;;;;;;;29.95;9.30;;;;;;;19.05;81.23;100729.80;1829118;77;21108;-67
2022/08/06 02:36:22;;;;;;;26.30;7.97;;;;;;;19.21;81.36;100733.48;1850089;77;21564;-68
2022/08/06 02:38:56;;;;;;;17.17;8.80;;;;;;;19.25;81.48;100724.27;1855802;77;21029;-66
2022/08/06 02:41:42;;;;;;;18.20;8.25;;;;;;;19.26;81.86;100724.66;1855574;76;21111;-66
2022/08/06 02:44:25;;;;;;;19.30;7.97;;;;;;;19.29;81.72;100724.43;1855631;77;21025;-66
2022/08/06 02:46:54;;;;;;;;;;;;;;;19.29;81.58;100724.89;1857542;76;21494;-68
2022/08/06 02:49:29;;;;;;;21.75;8.13;;;;;;;19.19;82.16;100718.08;1855549;77;20149;-68
2022/08/06 02:52:03;;;;;;;11.95;7.28;;;;;;;19.20;82.14;100726.46;1855600;77;21020;-68
2022/08/06 02:54:37;;;;;;;17.12;8.48;;;;;;;19.27;82.25;100726.83;1855491;76;21033;-69
2022/08/06 02:57:09;;;;;;;17.37;8.00;;;;;;;19.40;82.37;100729.42;1855640;77;21103;-69
2022/08/06 02:59:40;;;;;;;13.55;6.83;;;;;;;19.56;82.31;100725.94;1855394;76;21075;-69
2022/08/06 03:02:11;;;;;;;11.28;6.58;;;;;;;19.75;82.30;100724.55;1855407;77;21197;-68
2022/08/06 03:04:43;;;;;;;12.37;6.62;;;;;;;19.81;82.10;100728.09;1855648;77;21064;-68
2022/08/06 03:07:13;;;;;;;12.65;6.53;;;;;;;19.92;81.93;100732.57;1855638;77;21536;-68
2022/08/06 03:09:45;;;;;;;11.35;6.35;;;;;;;20.02;81.64;100737.08;1855507;77;21065;-69
2022/08/06 03:12:16;;;;;;;14.30;7.33;;;;;;;20.06;81.33;100730.52;1855742;77;21021;-67
2022/08/06 03:14:46;;;;;;;11.83;5.97;;;;;;;20.05;81.01;100726.16;1855717;77;21452;-68
2022/08/06 03:17:16;;;;;;;15.58;6.58;;;;;;;20.11;80.97;100731.98;1855630;77;21099;-68
2022/08/06 03:19:46;;;;;;;17.62;6.80;;;;;;;20.27;81.24;100731.14;1855706;77;21032;-68
2022/08/06 03:22:17;;;;;;;15.50;6.85;;;;;;;20.35;81.12;100731.36;1855607;77;21060;-69
2022/08/06 03:24:47;;;;;;;11.83;6.20;;;;;;;20.43;81.07;100735.59;1855745;77;21028;-68
2022/08/06 03:27:18;;;;;;;12.50;6.50;;;;;;;20.69;81.06;100738.00;1855613;77;21102;-68
2022/08/06 03:29:48;;;;;;;13.18;6.62;;;;;;;20.88;80.96;100739.17;1855489;77;21041;-68
2022/08/06 03:32:18;;;;;;;24.07;6.80;;;;;;;21.00;81.02;100742.17;1855881;77;21032;-68
2022/08/06 03:34:48;;;;;;;13.50;6.72;;;;;;;21.10;81.16;100737.77;1855495;77;21110;-69
2022/08/06 03:37:20;;;;;;;10.72;6.35;;;;;;;21.28;80.97;100735.35;1831757;77;21082;-68
2022/08/06 03:39:50;;;;;;;14.78;6.45;;;;;;;21.41;80.65;100731.15;1829173;78;21053;-68
2022/08/06 03:42:19;;;;;;;11.85;6.15;;;;;;;21.53;80.24;100736.00;1829185;78;21062;-68
2022/08/06 03:44:48;;;;;;;12.00;6.45;;;;;;;21.66;79.92;100731.78;1829092;77;21049;-68
2022/08/06 03:47:32;;;;;;;14.75;6.55;;;;;;;21.77;79.59;100731.70;1828987;78;21022;-67
2022/08/06 03:50:04;;;;;;;18.35;7.03;;;;;;;21.88;79.21;100734.30;1828905;77;21136;-67
2022/08/06 03:52:36;;;;;;;12.10;5.87;;;;;;;22.03;78.84;100731.27;1829084;78;21054;-68
2022/08/06 03:55:08;;;;;;;11.03;6.33;;;;;;;22.12;78.54;100725.09;1829209;78;21521;-68
2022/08/06 03:57:42;;;;;;;15.58;6.42;;;;;;;22.25;78.10;100723.52;1829001;78;21497;-70
2022/08/06 04:00:13;;;;;;;15.10;5.60;;;;;;;22.30;77.63;100724.84;1829152;78;21054;-68
2022/08/06 04:02:45;;;;;;;14.28;5.55;;;;;;;22.38;77.16;100732.70;1829324;78;21050;-68
2022/08/06 04:05:20;;;;;;;14.10;6.15;;;;;;;22.49;76.72;100723.19;1828765;78;21052;-68
2022/08/06 04:07:51;;;;;;;13.03;5.85;;;;;;;22.63;75.92;100721.94;1828359;77;21053;-67
2022/08/06 04:10:20;;;;;;;17.25;7.05;;;;;;;22.82;75.34;100719.29;1827578;77;21516;-68
2022/08/06 04:12:49;;;;;;;13.38;6.58;;;;;;;23.06;74.68;100714.87;1829128;78;21516;-67
2022/08/06 04:15:18;;;;;;;13.08;6.37;;;;;;;23.34;73.87;100720.37;1829136;78;21492;-68
2022/08/06 04:17:49;;;;;;;10.45;6.33;;;;;;;23.54;72.49;100713.62;1829101;78;21034;-68
2022/08/06 04:20:20;;;;;;;10.88;6.28;;;;;;;23.75;71.68;100716.95;1829090;78;21034;-67
2022/08/06 04:22:49;;;;;;;13.43;5.95;;;;;;;24.04;71.09;100703.94;1828915;78;21050;-68
2022/08/06 04:25:18;;;;;;;17.48;7.35;;;;;;;24.25;70.04;100705.03;1829084;78;21505;-68
2022/08/06 04:27:48;;;;;;;11.40;6.17;;;;;;;24.46;69.39;100706.97;1829114;78;21540;-68
2022/08/06 04:30:17;;;;;;;14.35;7.10;;;;;;;24.74;68.99;100712.84;1829175;78;21062;-68
2022/08/06 04:32:47;;;;;;;15.03;6.72;;;;;;;24.92;67.96;100714.17;1829100;78;21062;-69
2022/08/06 04:35:17;;;;;;;10.70;5.92;;;;;;;25.09;67.41;100708.46;1829119;77;21496;-70
2022/08/06 04:37:46;;;;;;;11.40;5.78;;;;;;;25.32;67.04;100709.67;1850342;76;21072;-69
2022/08/06 04:40:16;;;;;;;16.93;6.47;;;;;;;25.60;67.03;100714.92;1855655;77;21009;-69
2022/08/06 04:42:45;;;;;;;12.43;6.25;;;;;;;25.90;67.05;100714.95;1855812;77;21549;-69
2022/08/06 04:45:14;;;;;;;11.73;6.45;;;;;;;26.20;66.42;100713.59;1855761;77;21509;-68
2022/08/06 04:47:44;;;;;;;13.25;6.17;;;;;;;26.58;65.91;100711.36;1855589;77;20997;-69
2022/08/06 04:50:13;;;;;;;12.40;6.33;;;;;;;26.92;65.18;100701.48;1855689;77;21029;-68
2022/08/06 04:52:41;;;;;;;11.05;5.47;;;;;;;27.23;64.71;100704.87;1855707;77;21091;-68
2022/08/06 04:55:10;;;;;;;15.35;7.05;;;;;;;27.50;64.11;100706.38;1855718;77;21020;-68
2022/08/06 04:57:39;;;;;;;10.90;6.03;;;;;;;27.80;62.89;100699.91;1855668;77;21103;-68
2022/08/06 05:00:08;;;;;;;11.57;5.53;;;;;;;28.04;62.17;100697.14;1855640;77;21578;-68
2022/08/06 05:02:37;;;;;;;14.65;6.12;;;;;;;28.29;61.65;100703.30;1855685;77;21025;-68
2022/08/06 05:05:08;;;;;;;15.03;6.53;;;;;;;28.58;61.40;100701.80;1855628;77;21107;-68
2022/08/06 05:07:38;;;;;;;12.35;7.75;;;;;;;28.76;60.75;100700.16;1855666;77;21025;-69
2022/08/06 05:10:08;;;;;;;10.50;6.67;;;;;;;28.99;60.14;100702.86;1855768;77;21028;-69
2022/08/06 05:12:46;;;;;;;13.03;7.17;;;;;;;29.35;59.57;100691.93;1855647;77;21024;-70
2022/08/06 05:15:35;;;;;;;12.75;7.05;;;;;;;29.69;58.84;100694.09;1855748;77;21455;-69
2022/08/06 05:18:26;;;;;;;17.90;8.20;;;;;;;29.98;58.27;100696.00;1853898;76;21136;-70
2022/08/06 05:20:56;;;;;;;15.65;7.92;;;;;;;30.14;57.44;100692.77;1822957;79;21122;-69
2022/08/06 05:23:40;;;;;;;22.62;7.58;;;;;;;30.40;56.35;100693.64;1846731;77;21102;-70
2022/08/06 05:26:09;;;;;;;22.75;11.00;;;;;;;30.46;55.74;100697.46;1854970;76;21000;-70
2022/08/06 05:28:41;;;;;;;27.70;12.05;;;;;;;30.54;55.55;100697.33;1855796;77;21435;-70
2022/08/06 05:31:10;;;;;;;29.98;12.35;;;;;;;30.57;55.00;100701.03;1855825;77;21146;-70
2022/08/06 05:33:40;;;;;;;23.27;9.90;;;;;;;30.63;54.52;100699.41;1855637;77;21099;-69
2022/08/06 05:36:12;;;;;;;15.48;7.45;;;;;;;30.88;54.04;100698.53;1855749;77;21353;-69
2022/08/06 05:38:41;;;;;;;16.40;7.47;;;;;;;31.03;53.42;100691.17;1855938;77;21138;-69
2022/08/06 05:41:12;;;;;;;11.55;6.45;;;;;;;31.08;53.21;100698.22;1855624;77;21529;-69
2022/08/06 05:43:41;;;;;;;15.03;6.17;;;;;;;31.11;53.15;100701.89;1855632;77;21087;-69
2022/08/06 05:46:12;;;;;;;8.50;5.20;;;;;;;31.12;52.95;100700.03;1855673;77;21021;-69
2022/08/06 05:48:43;;;;;;;10.13;5.70;;;;;;;30.99;52.60;100698.03;1855825;77;21017;-69
2022/08/06 05:51:15;;;;;;;12.68;6.20;;;;;;;30.89;52.64;100702.91;1820676;77;21065;-69
2022/08/06 05:53:50;;;;;;;13.15;6.15;;;;;;;31.02;52.52;100704.42;1855678;76;21032;-69
2022/08/06 05:56:21;;;;;;;11.97;6.08;;;;;;;31.16;52.40;100702.15;1855538;76;21136;-68
2022/08/06 05:58:56;;;;;;;11.83;6.22;;;;;;;31.38;51.84;100703.48;1855172;76;21029;-68
2022/08/06 06:01:26;;;;;;;13.48;6.00;;;;;;;31.48;51.58;100703.98;1855634;77;21099;-68
2022/08/06 06:03:56;;;;;;;9.88;5.58;;;;;;;31.69;51.39;100702.27;1855632;77;21127;-69
2022/08/06 06:06:26;;;;;;;10.53;6.10;;;;;;;31.90;50.70;100702.16;1855712;77;21032;-68
2022/08/06 06:08:55;;;;;;;6.00;4.97;;;;;;;31.88;50.21;100700.16;1855618;77;21094;-69
2022/08/06 06:11:25;;;;;;;9.63;5.33;;;;;;;31.93;50.05;100697.69;1855645;77;21079;-69
2022/08/06 06:13:54;;;;;;;11.97;5.50;;;;;;;32.17;49.75;100702.83;1855722;77;21510;-69
2022/08/06 06:16:43;;;;;;;10.20;6.33;;;;;;;32.25;49.30;100693.97;1855587;77;21065;-69
2022/08/06 06:19:18;;;;;;;8.45;5.33;;;;;;;32.54;49.00;100697.42;1851148;77;21032;-69
2022/08/06 06:22:01;;;;;;;8.18;4.83;;;;;;;32.74;48.50;100693.92;1855588;77;21080;-69
2022/08/06 06:24:42;;;;;;;8.50;4.97;;;;;;;33.20;47.06;100694.50;1855667;77;21024;-69
2022/08/06 06:27:17;;;;;;;12.58;6.42;;;;;;;33.20;47.06;100694.50;1855754;77;21032;-68
2022/08/06 06:30:06;;;;;;;15.20;7.00;;;;;;;33.27;46.89;100685.80;1855253;77;21037;-69
2022/08/06 06:32:53;;;;;;;10.70;4.37;;;;;;;33.45;46.25;100690.08;1855580;77;21103;-68
2022/08/06 06:35:46;;;;;;;8.63;5.00;;;;;;;33.55;45.39;100705.18;1855442;77;21507;-68
2022/08/06 06:38:23;;;;;;;7.80;4.80;;;;;;;33.17;45.13;100695.78;1855579;77;21609;-69
2022/08/06 06:41:09;;;;;;;10.28;5.15;;;;;;;33.19;45.08;100705.13;1855630;76;21103;-68
2022/08/06 06:44:02;;;;;;;9.70;4.83;;;;;;;33.65;45.36;100689.25;1855653;77;21033;-68
2022/08/06 06:46:52;;;;;;;13.25;5.75;;;;;;;33.65;45.36;100689.25;1824454;79;21114;-69
2022/08/06 06:49:24;;;;;;;11.70;4.42;;;;;;;33.71;44.56;100696.58;1824651;79;21118;-69
2022/08/06 06:51:58;;;;;;;8.70;4.47;;;;;;;33.75;44.14;100699.72;1840528;77;21061;-68
2022/08/06 06:54:29;;;;;;;7.55;3.87;;;;;;;33.95;43.80;100701.03;1855684;77;21086;-68
2022/08/06 06:56:59;;;;;;;5.30;3.83;;;;;;;33.87;43.33;100704.01;1855511;76;21005;-70
2022/08/06 06:59:37;;;;;;;8.58;3.45;;;;;;;33.87;43.37;100701.28;1855705;77;21098;-68
2022/08/06 07:02:06;;;;;;;5.62;3.00;;;;;;;34.52;42.28;100695.75;1855674;77;21024;-68
2022/08/06 07:04:36;;;;;;;4.95;2.62;;;;;;;34.52;42.28;100695.75;1855680;77;21636;-69
2022/08/06 07:07:06;;;;;;;5.85;3.20;;;;;;;34.41;41.10;100709.58;1810349;79;21136;-68
2022/08/06 07:09:36;;;;;;;4.50;2.70;;;;;;;34.25;41.37;100693.14;1812704;79;21579;-68
2022/08/06 07:12:08;;;;;;;7.53;2.62;;;;;;;34.51;40.84;100708.59;1812858;79;21070;-69
2022/08/06 07:14:38;;;;;;;5.10;2.52;;;;;;;34.50;39.81;100708.81;1812875;79;21039;-70
2022/08/06 07:17:07;;;;;;;3.75;2.27;;;;;;;34.68;39.34;100714.41;1812857;79;21039;-69
2022/08/06 07:19:37;;;;;;;5.35;2.75;;;;;;;34.53;38.92;100705.11;1812806;79;21555;-68
2022/08/06 07:22:08;;;;;;;3.12;2.47;;;;;;;34.47;38.38;100714.16;1812748;79;21066;-69
2022/08/06 07:24:38;;;;;;;6.92;3.02;;;;;;;34.42;38.48;100711.27;1812733;79;21038;-69
2022/08/06 07:27:09;;;;;;;8.78;2.30;;;;;;;34.41;37.68;100716.41;1812772;79;21547;-69
2022/08/06 07:29:40;;;;;;;8.05;2.25;;;;;;;34.32;37.56;100710.89;1812830;79;21062;-69
2022/08/06 07:32:10;;;;;;;3.95;2.35;;;;;;;34.30;37.29;100704.80;1812809;79;21062;-69
2022/08/06 07:34:41;;;;;;;9.15;2.52;;;;;;;34.50;37.51;100699.23;1812641;79;21489;-68
2022/08/06 07:37:12;;;;;;;3.15;2.00;;;;;;;34.87;37.25;100711.22;1813007;79;21058;-68
2022/08/06 07:39:43;;;;;;;5.27;2.80;;;;;;;34.93;36.61;100712.23;1808597;79;21087;-69
2022/08/06 07:42:14;;;;;;;10.53;3.27;;;;;;;34.95;36.90;100712.84;1806741;79;21145;-68
2022/08/06 07:44:45;;;;;;;7.12;2.20;;;;;;;35.33;36.79;100710.58;1806764;79;21125;-68
2022/08/06 07:47:17;;;;;;;4.30;1.52;;;;;;;35.25;36.04;100720.42;1806830;78;21141;-68
2022/08/06 07:49:48;;;;;;;16.75;2.33;;;;;;;35.15;35.91;100719.53;1807215;79;21125;-68
2022/08/06 07:52:19;;;;;;;3.73;1.57;;;;;;;35.12;35.77;100717.23;1806980;79;21579;-69
2022/08/06 07:54:48;;;;;;;5.60;2.17;;;;;;;35.44;35.82;100718.59;1806871;79;21056;-68
2022/08/06 07:57:18;;;;;;;3.25;1.75;;;;;;;35.27;35.18;100702.73;1807025;79;21477;-68
2022/08/06 07:59:48;;;;;;;3.92;2.12;;;;;;;35.24;35.42;100704.54;1806833;79;21114;-68
2022/08/06 08:02:17;;;;;;;4.22;2.10;;;;;;;35.31;35.42;100707.23;1807035;79;21054;-68
2022/08/06 08:07:33;;;;;;;6.55;2.30;;;;;;;35.35;35.27;100699.70;1806750;79;21046;-68
2022/08/06 08:10:02;;;;;;;4.83;2.10;;;;;;;35.63;35.22;100699.73;1806674;79;21513;-68
2022/08/06 08:12:33;;;;;;;5.12;2.30;;;;;;;36.00;34.85;100701.14;1806726;79;21059;-68
2022/08/06 08:15:10;;;;;;;5.20;2.15;;;;;;;36.00;34.34;100695.66;1806862;79;21055;-68
2022/08/06 08:17:38;;;;;;;6.80;2.45;;;;;;;36.02;34.26;100699.00;1806854;79;21059;-68
2022/08/06 08:20:09;;;;;;;5.00;2.55;;;;;;;36.26;34.22;100697.28;1806739;79;21057;-68
2022/08/06 08:22:39;;;;;;;4.35;2.25;;;;;;;36.26;34.08;100689.56;1806770;79;21208;-68
2022/08/06 08:25:08;;;;;;;4.55;2.22;;;;;;;36.22;33.93;100697.95;1806758;79;21589;-68
2022/08/06 08:27:38;;;;;;;4.80;2.33;;;;;;;36.24;34.23;100697.19;1806834;79;21058;-68
2022/08/06 08:30:08;;;;;;;4.20;2.12;;;;;;;36.30;34.42;100697.66;1806824;79;21141;-69
2022/08/06 08:32:38;;;;;;;3.55;2.08;;;;;;;36.39;33.98;100694.89;1806839;79;21058;-68
2022/08/06 08:35:07;;;;;;;5.03;2.83;;;;;;;36.22;34.02;100691.94;1806671;79;21145;-68
2022/08/06 08:37:36;;;;;;;6.95;2.87;;;;;;;36.04;33.96;100691.42;1806841;79;21070;-68
2022/08/06 08:40:05;;;;;;;4.10;2.40;;;;;;;35.74;34.04;100683.95;1806801;79;21130;-68
2022/08/06 08:42:53;;;;;;;8.03;2.95;;;;;;;35.60;34.29;100676.94;1806828;79;21106;-69
2022/08/06 08:45:19;;;;;;;5.20;1.87;;;;;;;35.44;33.37;100684.37;1805894;79;21600;-68
2022/08/06 08:47:53;;;;;;;5.20;1.92;;;;;;;35.18;32.97;100676.68;1806750;79;21062;-68
2022/08/06 08:50:24;;;;;;;5.67;2.25;;;;;;;35.26;33.27;100675.58;1806818;79;21063;-69
2022/08/06 08:52:56;;;;;;;8.37;2.30;;;;;;;35.27;33.36;100678.10;1806974;79;21058;-69
2022/08/06 08:55:26;;;;;;;4.50;2.07;;;;;;;35.42;33.46;100671.44;1805420;78;21556;-69
2022/08/06 08:57:56;;;;;;;3.25;2.08;;;;;;;35.49;33.55;100674.95;1806735;79;21186;-69
2022/08/06 09:00:25;;;;;;;8.05;2.83;;;;;;;35.52;33.61;100671.73;1806859;79;21175;-69
2022/08/06 09:02:54;;;;;;;9.60;2.90;;;;;;;35.54;33.52;100666.87;1806930;79;21080;-69
2022/08/06 09:05:23;;;;;;;9.95;2.80;;;;;;;35.63;33.50;100673.72;1806749;79;21031;-69
2022/08/06 09:07:53;;;;;;;3.92;1.60;;;;;;;35.68;33.40;100668.95;1806832;79;21505;-69
2022/08/06 09:10:24;;;;;;;6.00;1.92;;;;;;;35.54;33.10;100683.30;1806730;79;21058;-69
2022/08/06 09:12:53;;;;;;;3.27;2.60;;;;;;;35.34;33.27;100684.35;1806756;79;21506;-68
2022/08/06 09:15:22;;;;;;;4.22;2.22;;;;;;;35.21;33.73;100681.71;1806823;79;21054;-69
2022/08/06 09:17:50;;;;;;;7.50;2.72;;;;;;;35.20;33.82;100670.48;1806726;79;21087;-69
2022/08/06 09:20:19;;;;;;;6.50;2.40;;;;;;;35.59;33.67;100675.25;1806861;79;21136;-68
2022/08/06 09:22:50;;;;;;;7.10;2.08;;;;;;;35.78;33.11;100673.91;1806785;79;21082;-69
2022/08/06 09:25:44;;;;;;;4.05;2.30;;;;;;;35.54;32.53;100675.08;1806671;78;21219;-69
2022/08/06 09:28:30;;;;;;;4.45;2.40;;;;;;;35.47;32.42;100666.09;1806841;79;21039;-69
2022/08/06 09:31:02;;;;;;;8.55;2.65;;;;;;;35.55;32.55;100667.19;1806741;79;21133;-69
2022/08/06 09:33:32;;;;;;;8.90;2.08;;;;;;;35.61;32.50;100673.11;1806770;79;21196;-68
2022/08/06 09:36:03;;;;;;;2.58;1.35;;;;;;;35.56;32.03;100656.02;1806832;79;21075;-68
2022/08/06 09:38:32;;;;;;;2.70;2.17;;;;;;;35.64;32.21;100669.10;1807087;79;21584;-68
2022/08/06 09:41:06;;;;;;;4.37;1.82;;;;;;;35.55;31.97;100664.45;1792453;79;21168;-69
2022/08/06 09:43:37;;;;;;;5.85;1.90;;;;;;;35.34;31.80;100655.61;1784724;79;21674;-68
2022/08/06 09:46:07;;;;;;;4.35;1.80;;;;;;;35.35;32.28;100660.00;1784417;79;21710;-68
2022/08/06 09:48:36;;;;;;;6.70;1.85;;;;;;;35.32;31.72;100663.72;1784628;80;21090;-68
2022/08/06 09:51:05;;;;;;;7.80;2.42;;;;;;;35.23;31.68;100656.36;1784618;80;21560;-68
2022/08/06 09:53:34;;;;;;;3.40;1.32;;;;;;;35.23;31.69;100660.92;1784726;79;21090;-68
2022/08/06 09:56:06;;;;;;;3.05;1.60;;;;;;;35.29;31.45;100660.92;1784749;80;21058;-68
2022/08/06 09:58:37;;;;;;;2.87;1.37;;;;;;;35.06;31.14;100665.61;1783467;79;21085;-68
2022/08/06 10:01:14;;;;;;;5.50;2.17;;;;;;;34.74;31.38;100651.16;1784980;79;21292;-68
2022/08/06 10:03:43;;;;;;;5.08;1.95;;;;;;;34.59;31.94;100656.38;1783969;79;21572;-68
2022/08/06 10:06:20;;;;;;;7.60;2.25;;;;;;;34.63;32.25;100663.61;1784740;80;21128;-68
2022/08/06 10:08:55;;;;;;;6.08;2.30;;;;;;;34.56;32.61;100662.27;1784514;80;21140;-69
2022/08/06 10:11:41;;;;;;;4.70;2.17;;;;;;;34.66;32.81;100648.64;1783026;80;21095;-69
2022/08/06 10:14:24;;;;;;;7.22;2.05;;;;;;;34.83;32.95;100653.09;1784798;80;21160;-69
2022/08/06 10:17:11;;;;;;;8.43;3.12;;;;;;;34.83;32.91;100644.36;1784643;80;21518;-69
2022/08/06 10:19:42;;;;;;;10.80;2.62;;;;;;;34.65;32.96;100645.62;1784626;80;21536;-69
2022/08/06 10:22:16;;;;;;;5.87;2.15;;;;;;;34.71;33.01;100652.96;1784669;80;21058;-69
2022/08/06 10:24:48;;;;;;;4.25;2.08;;;;;;;34.63;33.09;100647.74;1784672;80;21577;-68
2022/08/06 10:27:23;;;;;;;;;;;;;;;34.38;33.26;100648.01;1787277;80;21091;-68
2022/08/06 10:29:57;;;;;;;5.47;2.15;;;;;;;34.27;33.15;100669.70;1784678;80;20533;-68
2022/08/06 10:32:44;;;;;;;2.08;1.62;;;;;;;34.06;33.54;100660.74;1784433;80;21140;-69
2022/08/06 10:35:14;;;;;;;5.25;2.72;;;;;;;33.90;33.49;100670.28;1784656;80;21583;-68
2022/08/06 10:37:45;;;;;;;5.97;2.02;;;;;;;33.73;33.79;100672.62;1784632;80;21099;-69
2022/08/06 10:40:15;;;;;;;2.85;1.82;;;;;;;33.42;33.70;100673.28;1785061;79;21567;-69
2022/08/06 10:42:45;;;;;;;4.22;2.12;;;;;;;33.42;33.70;100673.28;1806764;79;21067;-68
2022/08/06 10:45:15;;;;;;;5.45;1.87;;;;;;;33.18;34.39;100671.55;1806873;79;21055;-69
2022/08/06 10:47:46;;;;;;;4.53;2.25;;;;;;;33.06;34.79;100675.39;1806806;79;21129;-68
2022/08/06 10:50:15;;;;;;;2.95;1.50;;;;;;;32.99;34.48;100685.45;1806786;79;21145;-69
2022/08/06 10:52:46;;;;;;;6.62;1.77;;;;;;;32.98;34.79;100671.52;1806851;79;21465;-68
2022/08/06 10:55:15;;;;;;;2.80;1.50;;;;;;;33.04;34.96;100692.48;1806889;79;21125;-68
2022/08/06 10:57:44;;;;;;;2.35;1.60;;;;;;;32.99;34.61;100669.09;1806836;79;21128;-68
2022/08/06 11:00:13;;;;;;;3.75;2.08;;;;;;;32.95;34.60;100671.09;1806796;79;21058;-68
2022/08/06 11:02:53;;;;;;;2.80;2.02;;;;;;;32.70;34.77;100671.19;1806887;79;21054;-68
2022/08/06 11:05:28;;;;;;;5.67;2.17;;;;;;;32.46;34.59;100678.02;1804486;79;21058;-68
2022/08/06 11:08:27;;;;;;;2.98;1.67;;;;;;;32.23;34.74;100675.63;1806895;79;21518;-68
2022/08/06 11:11:07;;;;;;;6.22;2.20;;;;;;;32.08;34.74;100677.68;1806744;79;21156;-68
2022/08/06 11:13:51;;;;;;;2.87;1.50;;;;;;;32.09;35.07;100669.81;1806705;79;21106;-68
2022/08/06 11:16:27;;;;;;;11.40;2.72;;;;;;;32.19;34.94;100668.92;1805268;78;21517;-68
2022/08/06 11:19:05;;;;;;;13.10;2.55;;;;;;;32.18;34.88;100667.23;1806638;78;21195;-68
2022/08/06 11:21:45;;;;;;;3.10;2.33;;;;;;;32.09;35.12;100652.11;1806672;79;21522;-68
2022/08/06 11:24:15;;;;;;;4.37;1.82;;;;;;;32.14;35.17;100671.41;1806681;79;21066;-68
2022/08/06 11:26:45;;;;;;;11.08;2.05;;;;;;;32.10;34.89;100676.95;1806939;79;21066;-68
2022/08/06 11:29:15;;;;;;;3.45;1.92;;;;;;;32.09;34.81;100675.26;1806760;79;21063;-68
2022/08/06 11:31:47;;;;;;;6.87;2.42;;;;;;;32.15;35.23;100674.97;1806733;79;21572;-68
2022/08/06 11:34:18;;;;;;;4.97;1.92;;;;;;;32.15;35.27;100669.02;1806864;79;21090;-68
2022/08/06 11:36:59;;;;;;;4.25;2.27;;;;;;;32.01;34.90;100679.50;1806790;79;21063;-68
2022/08/06 11:39:28;;;;;;;6.28;1.72;;;;;;;31.81;35.20;100665.78;1806765;79;21059;-68
2022/08/06 11:42:03;;;;;;;3.15;2.00;;;;;;;31.87;35.30;100681.30;1806705;79;21168;-68
2022/08/06 11:44:39;;;;;;;3.77;1.77;;;;;;;31.82;35.29;100662.03;1806717;79;21476;-70
2022/08/06 11:47:10;;;;;;;6.03;1.67;;;;;;;31.88;35.56;100659.33;1805503;79;21509;-69